createdAt,value
2023-02-19T00:00:49.578Z,32.58
2023-02-19T00:03:17.552Z,32.13
2023-02-19T00:05:45.386Z,32.50
2023-02-19T00:08:13.344Z,32.23
2023-02-19T00:10:41.075Z,32.57
2023-02-19T00:13:08.891Z,32.20
2023-02-19T00:15:36.852Z,32.19
2023-02-19T00:18:04.630Z,32.28
2023-02-19T00:20:32.373Z,32.23
2023-02-19T00:23:00.100Z,32.38
2023-02-19T00:25:27.780Z,32.31
2023-02-19T00:27:55.700Z,32.54
2023-02-19T00:30:23.428Z,32.07
2023-02-19T00:32:51.184Z,32.62
2023-02-19T00:35:18.920Z,32.06
2023-02-19T00:37:46.588Z,32.36
2023-02-19T00:40:14.276Z,32.15
2023-02-19T00:42:42.032Z,32.41
2023-02-19T00:45:10.193Z,32.39
2023-02-19T00:47:37.893Z,32.25
2023-02-19T00:50:05.583Z,32.29
2023-02-19T00:52:33.298Z,32.40
2023-02-19T00:55:01.133Z,32.32
2023-02-19T00:57:28.855Z,32.36
2023-02-19T00:59:56.549Z,32.29
2023-02-19T01:02:24.276Z,32.48
2023-02-19T01:04:52.279Z,32.58
2023-02-19T01:07:20.050Z,32.57
2023-02-19T01:09:47.765Z,32.64
2023-02-19T01:12:15.497Z,32.50
2023-02-19T01:14:43.226Z,32.41
2023-02-19T01:17:11.044Z,32.24
2023-02-19T01:19:38.805Z,32.63
2023-02-19T01:22:06.537Z,32.21
2023-02-19T01:24:34.244Z,32.42
2023-02-19T01:27:01.938Z,32.51
2023-02-19T01:29:29.760Z,32.55
2023-02-19T01:32:10.126Z,32.47
2023-02-19T01:34:39.895Z,32.50
2023-02-19T01:37:16.011Z,32.26
2023-02-19T01:39:47.153Z,32.89
2023-02-19T01:42:17.030Z,32.66
2023-02-19T01:44:47.721Z,32.61
2023-02-19T01:47:19.857Z,32.83
2023-02-19T01:50:06.127Z,32.48
2023-02-19T01:52:34.257Z,32.48
2023-02-19T01:55:18.436Z,32.47
2023-02-19T02:00:57.976Z,32.67
2023-02-19T02:04:01.794Z,32.48
2023-02-19T02:06:38.308Z,32.63
2023-02-19T02:09:23.814Z,32.46
2023-02-19T02:11:51.597Z,32.67
2023-02-19T02:14:19.405Z,32.72
2023-02-19T02:16:47.150Z,32.52
2023-02-19T02:19:14.906Z,32.33
2023-02-19T02:21:44.501Z,32.33
2023-02-19T02:24:12.336Z,32.44
2023-02-19T02:26:40.037Z,32.36
2023-02-19T02:29:07.787Z,32.45
2023-02-19T02:31:35.725Z,32.31
2023-02-19T02:34:03.483Z,32.42
2023-02-19T02:36:31.220Z,32.57
2023-02-19T02:38:58.954Z,32.52
2023-02-19T02:41:26.689Z,32.51
2023-02-19T02:43:54.540Z,33.03
2023-02-19T02:46:22.236Z,32.84
2023-02-19T02:48:53.823Z,32.56
2023-02-19T02:51:21.568Z,32.22
2023-02-19T02:54:06.739Z,32.85
2023-02-19T02:56:34.587Z,32.72
2023-02-19T02:59:02.327Z,32.78
2023-02-19T03:01:47.831Z,32.62
2023-02-19T03:04:15.593Z,32.90
2023-02-19T03:06:43.318Z,32.80
2023-02-19T03:09:11.261Z,32.83
2023-02-19T03:11:56.394Z,32.58
2023-02-19T03:14:41.581Z,32.80
2023-02-19T03:17:27.001Z,32.96
2023-02-19T03:19:54.724Z,32.63
2023-02-19T03:22:22.591Z,32.54
2023-02-19T03:25:07.744Z,32.56
2023-02-19T03:27:35.490Z,32.66
2023-02-19T03:30:03.224Z,32.55
2023-02-19T03:32:30.974Z,32.37
2023-02-19T03:34:58.681Z,32.61
2023-02-19T03:37:26.405Z,32.55
2023-02-19T03:39:54.125Z,32.52
2023-02-19T03:42:21.860Z,32.01
2023-02-19T03:44:49.574Z,32.46
2023-02-19T03:47:17.392Z,32.31
2023-02-19T03:49:46.705Z,32.30
2023-02-19T03:52:16.550Z,32.16
2023-02-19T03:54:44.357Z,32.67
2023-02-19T03:57:12.160Z,32.31
2023-02-19T03:59:39.988Z,32.47
2023-02-19T04:02:07.956Z,32.59
2023-02-19T04:04:35.849Z,32.30
2023-02-19T04:07:03.792Z,32.64
2023-02-19T04:09:31.616Z,32.48
2023-02-19T04:11:59.405Z,32.33
2023-02-19T04:14:27.150Z,32.38
2023-02-19T04:16:55.768Z,32.28
2023-02-19T04:19:23.780Z,32.52
2023-02-19T04:21:51.632Z,32.66
2023-02-19T04:24:19.404Z,32.57
2023-02-19T04:26:47.194Z,32.69
2023-02-19T04:29:14.976Z,32.79
2023-02-19T04:31:42.750Z,32.92
2023-02-19T04:34:10.756Z,32.78
2023-02-19T04:36:38.524Z,32.50
2023-02-19T04:39:08.170Z,32.85
2023-02-19T04:41:36.017Z,32.64
2023-02-19T04:44:03.751Z,32.80
2023-02-19T04:46:31.738Z,32.75
2023-02-19T04:48:59.509Z,32.83
2023-02-19T04:51:27.325Z,32.78
2023-02-19T04:53:56.437Z,32.45
2023-02-19T04:56:24.240Z,32.86
2023-02-19T04:58:52.028Z,32.75
2023-02-19T05:01:19.830Z,32.81
2023-02-19T05:03:47.606Z,33.18
2023-02-19T05:06:15.477Z,32.68
2023-02-19T05:08:43.219Z,32.61
2023-02-19T05:11:11.525Z,32.52
2023-02-19T05:13:39.806Z,32.53
2023-02-19T05:16:07.664Z,32.59
2023-02-19T05:18:35.673Z,32.74
2023-02-19T05:21:03.463Z,32.85
2023-02-19T05:23:31.293Z,32.78
2023-02-19T05:25:59.164Z,33.06
2023-02-19T05:28:29.715Z,32.93
2023-02-19T05:30:57.759Z,33.07
2023-02-19T05:33:25.553Z,33.01
2023-02-19T05:35:53.549Z,32.55
2023-02-19T05:38:21.474Z,32.82
2023-02-19T05:40:49.322Z,33.20
2023-02-19T05:43:17.222Z,33.27
2023-02-19T05:45:44.984Z,32.95
2023-02-19T05:48:13.165Z,31.50
2023-02-19T05:50:41.076Z,29.98
2023-02-19T05:53:08.896Z,28.80
2023-02-19T05:55:36.634Z,27.65
2023-02-19T05:58:04.530Z,27.31
2023-02-19T06:00:32.324Z,26.62
2023-02-19T06:03:00.154Z,26.56
2023-02-19T06:05:27.937Z,26.30
2023-02-19T06:07:55.827Z,25.82
2023-02-19T06:10:23.705Z,26.26
2023-02-19T06:12:51.496Z,26.24
2023-02-19T06:15:19.293Z,26.05
2023-02-19T06:17:47.072Z,25.95
2023-02-19T06:20:14.897Z,23.71
2023-02-19T06:22:42.680Z,18.56
2023-02-19T06:25:12.672Z,15.12
2023-02-19T06:27:40.452Z,13.77
2023-02-19T06:30:08.284Z,12.47
2023-02-19T06:32:36.082Z,12.49
2023-02-19T06:35:03.985Z,12.14
2023-02-19T06:37:31.915Z,11.50
2023-02-19T06:39:59.773Z,11.31
2023-02-19T06:42:27.604Z,11.00
2023-02-19T06:44:55.613Z,11.27
2023-02-19T06:47:25.423Z,11.57
2023-02-19T06:49:53.315Z,11.98
2023-02-19T06:52:21.328Z,11.84
2023-02-19T06:54:49.256Z,12.30
2023-02-19T06:57:17.078Z,12.94
2023-02-19T06:59:44.929Z,13.68
2023-02-19T07:02:12.727Z,14.11
2023-02-19T07:04:40.488Z,14.92
2023-02-19T07:07:08.298Z,15.79
2023-02-19T07:09:36.294Z,16.56
2023-02-19T07:12:04.115Z,17.48
2023-02-19T07:14:31.905Z,17.92
2023-02-19T07:16:59.705Z,18.74
2023-02-19T07:19:27.480Z,19.26
2023-02-19T07:21:55.381Z,20.06
2023-02-19T07:24:23.181Z,20.90
2023-02-19T07:26:51.107Z,21.38
2023-02-19T07:29:18.833Z,21.96
2023-02-19T07:31:46.674Z,22.22
2023-02-19T07:34:14.451Z,22.93
2023-02-19T07:36:42.329Z,23.20
2023-02-19T07:39:11.699Z,23.42
2023-02-19T07:41:39.506Z,24.39
2023-02-19T07:44:07.299Z,24.67
2023-02-19T07:46:35.055Z,25.05
2023-02-19T07:49:02.907Z,25.37
2023-02-19T07:51:30.697Z,25.35
2023-02-19T07:53:58.516Z,25.21
2023-02-19T07:56:26.354Z,25.04
2023-02-19T07:58:54.280Z,25.28
2023-02-19T08:01:43.331Z,25.19
2023-02-19T08:04:10.142Z,25.53
2023-02-19T08:06:39.349Z,25.01
2023-02-19T08:09:07.212Z,22.98
2023-02-19T08:11:52.626Z,19.98
2023-02-19T08:14:20.407Z,17.69
2023-02-19T08:16:48.274Z,16.09
2023-02-19T08:19:16.100Z,15.63
2023-02-19T08:21:44.386Z,16.06
2023-02-19T08:24:12.199Z,15.73
2023-02-19T08:26:40.123Z,16.66
2023-02-19T08:29:08.010Z,17.12
2023-02-19T08:31:36.029Z,17.56
2023-02-19T08:34:03.858Z,18.22
2023-02-19T08:36:31.682Z,18.77
2023-02-19T08:38:59.531Z,19.66
2023-02-19T08:41:27.333Z,20.08
2023-02-19T08:43:55.130Z,20.85
2023-02-19T08:46:23.678Z,21.60
2023-02-19T08:48:52.033Z,22.16
2023-02-19T08:51:20.169Z,22.48
2023-02-19T08:53:47.960Z,23.02
2023-02-19T08:56:15.946Z,23.39
2023-02-19T08:58:45.145Z,24.42
2023-02-19T09:01:13.527Z,24.39
2023-02-19T09:03:41.600Z,23.93
2023-02-19T09:06:09.818Z,24.18
2023-02-19T09:08:37.748Z,24.39
2023-02-19T09:11:07.116Z,24.39
2023-02-19T09:13:35.109Z,24.71
2023-02-19T09:16:02.982Z,25.12
2023-02-19T09:18:30.924Z,25.21
2023-02-19T09:20:58.831Z,25.52
2023-02-19T09:23:26.790Z,25.53
2023-02-19T09:25:54.702Z,26.19
2023-02-19T09:28:22.546Z,26.11
2023-02-19T09:30:50.550Z,26.83
2023-02-19T09:33:18.318Z,26.44
2023-02-19T09:35:46.117Z,26.82
2023-02-19T09:38:13.861Z,26.92
2023-02-19T09:40:41.791Z,27.24
2023-02-19T09:43:09.596Z,27.57
2023-02-19T09:45:38.054Z,28.13
2023-02-19T09:48:06.350Z,27.74
2023-02-19T09:50:34.228Z,27.66
2023-02-19T09:53:03.312Z,28.13
2023-02-19T09:55:31.289Z,28.16
2023-02-19T09:57:59.103Z,27.98
2023-02-19T10:00:27.044Z,27.94
2023-02-19T10:02:54.789Z,28.27
2023-02-19T10:05:22.703Z,28.58
2023-02-19T10:07:50.663Z,28.63
2023-02-19T10:10:18.930Z,29.29
2023-02-19T10:12:46.744Z,29.13
2023-02-19T10:15:14.527Z,29.16
2023-02-19T10:17:42.510Z,29.43
2023-02-19T10:20:10.421Z,29.26
2023-02-19T10:22:38.388Z,29.48
2023-02-19T10:25:06.192Z,29.72
2023-02-19T10:27:34.008Z,29.46
2023-02-19T10:30:01.869Z,29.66
2023-02-19T10:32:29.918Z,29.66
2023-02-19T10:34:57.691Z,29.59
2023-02-19T10:37:25.620Z,29.77
2023-02-19T10:39:53.365Z,30.01
2023-02-19T10:42:21.176Z,29.80
2023-02-19T10:44:48.954Z,29.90
2023-02-19T10:47:16.745Z,29.92
2023-02-19T10:49:46.172Z,30.16
2023-02-19T10:52:17.666Z,30.11
2023-02-19T10:54:45.917Z,29.81
2023-02-19T10:57:13.709Z,30.07
2023-02-19T10:59:41.643Z,30.03
2023-02-19T11:02:09.434Z,30.01
2023-02-19T11:04:38.448Z,30.12
2023-02-19T11:07:06.233Z,29.94
2023-02-19T11:09:34.269Z,29.65
2023-02-19T11:12:02.010Z,29.98
2023-02-19T11:14:29.853Z,30.13
2023-02-19T11:16:57.680Z,30.37
2023-02-19T11:19:25.795Z,30.13
2023-02-19T11:21:53.601Z,30.40
2023-02-19T11:24:21.431Z,30.75
2023-02-19T11:26:49.220Z,30.14
2023-02-19T11:29:17.092Z,30.62
2023-02-19T11:31:44.965Z,30.60
2023-02-19T11:34:12.734Z,30.27
2023-02-19T11:36:40.518Z,30.42
2023-02-19T11:39:08.706Z,30.55
2023-02-19T11:41:36.669Z,30.56
2023-02-19T11:44:04.634Z,30.63
2023-02-19T11:46:32.783Z,30.64
2023-02-19T11:49:02.383Z,30.74
2023-02-19T11:51:30.464Z,30.82
2023-02-19T11:53:58.548Z,30.92
2023-02-19T11:56:27.809Z,30.65
2023-02-19T11:58:55.707Z,30.99
2023-02-19T12:01:23.473Z,30.83
2023-02-19T12:03:51.840Z,30.58
2023-02-19T12:06:19.743Z,30.98
2023-02-19T12:08:47.575Z,30.75
2023-02-19T12:11:15.553Z,30.80
2023-02-19T12:13:43.293Z,30.74
2023-02-19T12:16:11.104Z,30.98
2023-02-19T12:18:38.920Z,30.84
2023-02-19T12:21:06.768Z,30.49
2023-02-19T12:23:34.712Z,31.10
2023-02-19T12:26:02.531Z,31.16
2023-02-19T12:28:30.373Z,30.66
2023-02-19T12:30:58.189Z,31.03
2023-02-19T12:33:26.071Z,30.61
2023-02-19T12:35:54.197Z,31.18
2023-02-19T12:38:22.610Z,30.73
2023-02-19T12:40:50.506Z,30.90
2023-02-19T12:43:19.029Z,31.26
2023-02-19T12:45:47.860Z,30.41
2023-02-19T12:48:16.269Z,25.03
2023-02-19T12:50:44.227Z,18.78
2023-02-19T12:53:12.239Z,14.94
2023-02-19T12:55:40.256Z,12.96
2023-02-19T12:58:08.110Z,12.56
2023-02-19T13:00:35.961Z,11.55
2023-02-19T13:03:03.882Z,10.90
2023-02-19T13:05:31.711Z,10.48
2023-02-19T13:07:59.547Z,10.35
2023-02-19T13:10:27.592Z,10.20
2023-02-19T13:12:55.462Z,10.02
2023-02-19T13:15:23.405Z,10.71
2023-02-19T13:17:51.394Z,10.94
2023-02-19T13:20:19.261Z,11.64
2023-02-19T13:23:04.718Z,12.87
2023-02-19T13:25:32.753Z,13.31
2023-02-19T13:28:00.945Z,14.09
2023-02-19T13:30:29.033Z,14.73
2023-02-19T13:32:56.908Z,15.56
2023-02-19T13:35:24.845Z,16.15
2023-02-19T13:37:52.726Z,17.04
2023-02-19T13:40:20.647Z,18.08
2023-02-19T13:42:48.416Z,18.59
2023-02-19T13:45:16.548Z,19.14
2023-02-19T13:47:44.363Z,19.38
2023-02-19T13:50:12.513Z,20.40
2023-02-19T13:52:40.760Z,21.01
2023-02-19T13:55:08.881Z,21.20
2023-02-19T13:57:37.655Z,21.84
2023-02-19T14:00:05.520Z,22.38
2023-02-19T14:02:34.009Z,23.03
2023-02-19T14:05:01.868Z,23.35
2023-02-19T14:07:30.122Z,24.04
2023-02-19T14:09:58.679Z,24.08
2023-02-19T14:12:26.440Z,24.41
2023-02-19T14:14:54.262Z,24.95
2023-02-19T14:17:22.100Z,25.30
2023-02-19T14:19:50.072Z,25.09
2023-02-19T14:22:17.837Z,26.13
2023-02-19T14:24:45.698Z,26.09
2023-02-19T14:27:13.471Z,25.82
2023-02-19T14:29:41.232Z,25.71
2023-02-19T14:32:09.030Z,25.87
2023-02-19T14:34:37.654Z,26.09
2023-02-19T14:37:06.918Z,26.48
2023-02-19T14:39:35.233Z,26.26
2023-02-19T14:42:03.085Z,26.46
2023-02-19T14:44:30.918Z,26.46
2023-02-19T14:46:58.724Z,26.72
2023-02-19T14:49:26.543Z,27.16
2023-02-19T14:51:54.453Z,27.03
2023-02-19T14:54:22.320Z,27.45
2023-02-19T14:56:50.407Z,25.91
2023-02-19T14:59:18.312Z,22.89
2023-02-19T15:01:46.189Z,20.42
2023-02-19T15:04:14.079Z,17.70
2023-02-19T15:06:41.866Z,16.27
2023-02-19T15:09:09.786Z,14.89
2023-02-19T15:11:37.618Z,13.37
2023-02-19T15:14:05.465Z,13.05
2023-02-19T15:16:33.424Z,13.11
2023-02-19T15:19:01.216Z,13.83
2023-02-19T15:21:29.126Z,14.06
2023-02-19T15:23:56.870Z,14.99
2023-02-19T15:26:24.700Z,15.42
2023-02-19T15:28:52.535Z,16.34
2023-02-19T15:31:20.534Z,16.79
2023-02-19T15:33:48.366Z,17.35
2023-02-19T15:36:16.372Z,18.50
2023-02-19T15:38:44.267Z,19.18
2023-02-19T15:41:12.532Z,19.61
2023-02-19T15:43:40.522Z,20.48
2023-02-19T15:46:08.408Z,21.10
2023-02-19T15:48:36.233Z,21.78
2023-02-19T15:51:08.231Z,22.06
2023-02-19T15:53:36.725Z,22.59
2023-02-19T15:56:04.531Z,23.21
2023-02-19T15:58:32.347Z,23.66
2023-02-19T16:01:00.180Z,23.87
2023-02-19T16:03:28.108Z,24.60
2023-02-19T16:05:55.956Z,25.13
2023-02-19T16:08:23.859Z,25.58
2023-02-19T16:10:51.700Z,25.51
2023-02-19T16:13:20.075Z,25.88
2023-02-19T16:15:48.393Z,26.43
2023-02-19T16:18:16.942Z,26.41
2023-02-19T16:20:44.783Z,26.56
2023-02-19T16:23:12.647Z,27.11
2023-02-19T16:25:42.105Z,27.19
2023-02-19T16:28:10.274Z,27.41
2023-02-19T16:30:38.101Z,27.06
2023-02-19T16:33:06.144Z,27.58
2023-02-19T16:35:34.085Z,27.58
2023-02-19T16:38:02.178Z,27.09
2023-02-19T16:40:30.215Z,27.29
2023-02-19T16:42:58.059Z,27.63
2023-02-19T16:45:27.535Z,27.79
2023-02-19T16:47:55.480Z,28.11
2023-02-19T16:50:23.276Z,27.88
2023-02-19T16:52:51.320Z,28.08
2023-02-19T16:55:19.238Z,27.99
2023-02-19T16:57:47.099Z,27.92
2023-02-19T17:00:15.050Z,28.04
2023-02-19T17:02:43.372Z,27.86
2023-02-19T17:05:11.169Z,25.78
2023-02-19T17:07:39.004Z,23.63
2023-02-19T17:10:06.796Z,21.19
2023-02-19T17:12:36.834Z,19.32
2023-02-19T17:15:04.812Z,17.77
2023-02-19T17:17:32.958Z,16.25
2023-02-19T17:20:00.831Z,15.07
2023-02-19T17:22:28.772Z,14.25
2023-02-19T17:24:56.796Z,14.11
2023-02-19T17:27:24.668Z,14.82
2023-02-19T17:29:52.858Z,15.41
2023-02-19T17:32:20.765Z,16.13
2023-02-19T17:34:50.191Z,16.61
2023-02-19T17:40:39.603Z,18.56
2023-02-19T17:46:06.409Z,19.93
2023-02-19T17:48:34.242Z,20.77
2023-02-19T17:51:02.119Z,21.40
2023-02-19T17:53:29.885Z,22.17
2023-02-19T17:55:58.025Z,22.46
2023-02-19T17:58:25.878Z,22.95
2023-02-19T18:00:53.804Z,23.53
2023-02-19T18:03:21.689Z,23.73
2023-02-19T18:05:49.571Z,24.17
2023-02-19T18:08:17.376Z,24.66
2023-02-19T18:10:45.138Z,24.98
2023-02-19T18:13:13.246Z,25.45
2023-02-19T18:15:41.039Z,25.38
2023-02-19T18:18:09.835Z,25.27
2023-02-19T18:20:37.618Z,25.24
2023-02-19T18:23:05.577Z,25.61
2023-02-19T18:25:33.335Z,25.78
2023-02-19T18:28:01.436Z,26.17
2023-02-19T18:30:30.146Z,25.92
2023-02-19T18:32:57.972Z,26.04
2023-02-19T18:35:25.845Z,26.09
2023-02-19T18:37:53.778Z,26.78
2023-02-19T18:40:21.860Z,26.62
2023-02-19T18:42:49.649Z,26.68
2023-02-19T18:45:17.961Z,26.91
2023-02-19T18:47:45.714Z,27.25
2023-02-19T18:50:13.690Z,27.24
2023-02-19T18:52:41.519Z,27.26
2023-02-19T18:55:09.596Z,27.50
2023-02-19T18:57:37.378Z,27.70
2023-02-19T19:00:06.402Z,27.86
2023-02-19T19:02:48.339Z,28.08
2023-02-19T19:05:18.500Z,27.91
2023-02-19T19:07:46.358Z,27.48
2023-02-19T19:10:14.796Z,27.71
2023-02-19T19:12:42.566Z,27.49
2023-02-19T19:15:10.363Z,26.08
2023-02-19T19:17:38.304Z,21.63
2023-02-19T19:20:06.103Z,16.64
2023-02-19T19:22:34.212Z,13.26
2023-02-19T19:25:02.131Z,11.09
2023-02-19T19:27:30.123Z,9.69
2023-02-19T19:29:58.225Z,8.76
2023-02-19T19:32:26.047Z,9.07
2023-02-19T19:34:54.365Z,9.43
2023-02-19T19:37:22.119Z,9.79
2023-02-19T19:39:50.237Z,10.46
2023-02-19T19:42:18.246Z,10.80
2023-02-19T19:44:46.211Z,12.08
2023-02-19T19:47:14.215Z,12.55
2023-02-19T19:49:42.143Z,13.66
2023-02-19T19:52:10.077Z,14.14
2023-02-19T19:54:38.222Z,15.14
2023-02-19T19:57:06.100Z,16.18
2023-02-19T19:59:33.976Z,16.54
2023-02-19T20:02:03.315Z,17.18
2023-02-19T20:04:31.095Z,18.34
2023-02-19T20:07:00.278Z,18.57
2023-02-19T20:09:29.174Z,19.02
2023-02-19T20:11:57.167Z,20.25
2023-02-19T20:14:25.118Z,20.52
2023-02-19T20:16:52.981Z,21.14
2023-02-19T20:19:20.861Z,21.60
2023-02-19T20:21:48.751Z,22.03
2023-02-19T20:24:16.927Z,22.32
2023-02-19T20:26:44.702Z,22.81
2023-02-19T20:29:12.706Z,23.03
2023-02-19T20:31:40.658Z,23.71
2023-02-19T20:34:08.732Z,24.02
2023-02-19T20:36:36.695Z,24.34
2023-02-19T20:39:04.533Z,24.57
2023-02-19T20:41:32.463Z,24.10
2023-02-19T20:44:00.274Z,24.24
2023-02-19T20:46:29.720Z,24.45
2023-02-19T20:48:57.813Z,24.55
2023-02-19T20:51:25.854Z,25.03
2023-02-19T20:53:53.756Z,25.05
2023-02-19T20:56:21.631Z,24.85
2023-02-19T20:58:49.478Z,25.68
2023-02-19T21:01:17.313Z,25.36
2023-02-19T21:03:45.212Z,25.78
2023-02-19T21:06:13.246Z,26.18
2023-02-19T21:08:41.478Z,26.02
2023-02-19T21:11:09.312Z,26.30
2023-02-19T21:13:37.200Z,26.25
2023-02-19T21:16:05.083Z,26.83
2023-02-19T21:18:32.895Z,26.87
2023-02-19T21:21:00.775Z,26.59
2023-02-19T21:23:28.676Z,26.94
2023-02-19T21:25:56.577Z,26.73
2023-02-19T21:28:24.419Z,27.17
2023-02-19T21:30:52.201Z,27.32
2023-02-19T21:33:19.971Z,27.87
2023-02-19T21:35:47.757Z,27.96
2023-02-19T21:38:15.688Z,28.04
2023-02-19T21:40:43.521Z,28.41
2023-02-19T21:43:12.787Z,28.53
2023-02-19T21:45:40.610Z,28.51
2023-02-19T21:48:08.520Z,28.17
2023-02-19T21:50:36.388Z,28.42
2023-02-19T21:53:05.623Z,28.54
2023-02-19T21:55:33.395Z,28.59
2023-02-19T21:58:01.186Z,28.75
2023-02-19T22:00:29.156Z,29.08
2023-02-19T22:02:57.085Z,28.93
2023-02-19T22:05:25.572Z,28.56
2023-02-19T22:07:54.020Z,29.16
2023-02-19T22:10:21.878Z,28.98
2023-02-19T22:12:49.674Z,29.03
2023-02-19T22:15:17.510Z,29.19
2023-02-19T22:17:46.495Z,29.11
2023-02-19T22:20:17.207Z,28.81
2023-02-19T22:22:44.979Z,28.77
2023-02-19T22:25:12.993Z,29.11
2023-02-19T22:27:40.742Z,29.37
2023-02-19T22:30:08.739Z,29.06
2023-02-19T22:32:36.675Z,29.11
2023-02-19T22:35:04.465Z,29.33
2023-02-19T22:37:32.302Z,29.36
2023-02-19T22:40:00.109Z,28.93
2023-02-19T22:42:29.623Z,28.94
2023-02-19T22:44:57.463Z,29.08
2023-02-19T22:47:25.312Z,29.51
2023-02-19T22:49:53.137Z,29.17
2023-02-19T22:52:20.891Z,29.02
2023-02-19T22:54:48.674Z,29.60
2023-02-19T22:57:16.570Z,29.42
2023-02-19T22:59:44.369Z,28.92
2023-02-19T23:02:12.335Z,29.30
2023-02-19T23:04:40.146Z,29.04
2023-02-19T23:07:07.978Z,29.34
2023-02-19T23:09:35.818Z,29.43
2023-02-19T23:12:03.582Z,29.21
2023-02-19T23:14:31.403Z,29.23
2023-02-19T23:16:59.352Z,29.50
2023-02-19T23:19:27.365Z,29.51
2023-02-19T23:21:55.434Z,29.49
2023-02-19T23:24:23.242Z,29.52
2023-02-19T23:26:51.079Z,29.91
2023-02-19T23:29:18.908Z,29.73
2023-02-19T23:31:46.798Z,29.52
2023-02-19T23:34:14.684Z,30.02
2023-02-19T23:36:42.507Z,29.95
2023-02-19T23:39:10.249Z,29.83
2023-02-19T23:41:38.185Z,30.00
2023-02-19T23:44:05.976Z,30.17
2023-02-19T23:46:34.107Z,30.09
2023-02-19T23:49:01.950Z,30.03
2023-02-19T23:51:29.761Z,30.31
2023-02-19T23:53:57.579Z,30.07
2023-02-19T23:56:25.402Z,29.87
2023-02-19T23:58:53.238Z,30.02
